sensor_id;sensor_type;location;lat;lon;timestamp;P1;durP1;ratioP1;P2;durP2;ratioP2
75698;SDS011;64313;51.018;13.742;2024-03-08T00:02:38;23.80;;;12.75;;
75698;SDS011;64313;51.018;13.742;2024-03-08T00:05:04;28.45;;;13.82;;
75698;SDS011;64313;51.018;13.742;2024-03-08T00:07:30;22.63;;;12.50;;
75698;SDS011;64313;51.018;13.742;2024-03-08T00:09:56;26.77;;;13.68;;
75698;SDS011;64313;51.018;13.742;2024-03-08T00:12:21;24.38;;;12.48;;
75698;SDS011;64313;51.018;13.742;2024-03-08T00:14:46;23.00;;;12.98;;
75698;SDS011;64313;51.018;13.742;2024-03-08T00:17:12;25.23;;;13.00;;
75698;SDS011;64313;51.018;13.742;2024-03-08T00:19:37;25.33;;;13.07;;
75698;SDS011;64313;51.018;13.742;2024-03-08T00:22:02;23.65;;;12.95;;
75698;SDS011;64313;51.018;13.742;2024-03-08T00:24:27;25.15;;;13.05;;
75698;SDS011;64313;51.018;13.742;2024-03-08T00:26:54;25.75;;;13.35;;
75698;SDS011;64313;51.018;13.742;2024-03-08T00:29:19;23.13;;;12.82;;
75698;SDS011;64313;51.018;13.742;2024-03-08T00:31:45;24.25;;;13.05;;
75698;SDS011;64313;51.018;13.742;2024-03-08T00:34:10;25.17;;;14.05;;
75698;SDS011;64313;51.018;13.742;2024-03-08T00:39:02;26.27;;;12.75;;
75698;SDS011;64313;51.018;13.742;2024-03-08T00:41:31;27.15;;;14.02;;
75698;SDS011;64313;51.018;13.742;2024-03-08T00:43:56;25.40;;;13.93;;
75698;SDS011;64313;51.018;13.742;2024-03-08T00:46:22;24.48;;;13.88;;
75698;SDS011;64313;51.018;13.742;2024-03-08T00:48:47;26.05;;;13.20;;
75698;SDS011;64313;51.018;13.742;2024-03-08T00:51:12;27.48;;;13.63;;
75698;SDS011;64313;51.018;13.742;2024-03-08T00:53:37;26.65;;;13.15;;
75698;SDS011;64313;51.018;13.742;2024-03-08T00:56:03;25.05;;;12.80;;
75698;SDS011;64313;51.018;13.742;2024-03-08T00:58:29;26.27;;;13.77;;
75698;SDS011;64313;51.018;13.742;2024-03-08T01:00:55;28.30;;;14.05;;
75698;SDS011;64313;51.018;13.742;2024-03-08T01:03:22;25.48;;;13.07;;
75698;SDS011;64313;51.018;13.742;2024-03-08T01:05:47;25.40;;;13.35;;
75698;SDS011;64313;51.018;13.742;2024-03-08T01:08:12;27.27;;;14.00;;
75698;SDS011;64313;51.018;13.742;2024-03-08T01:10:38;23.00;;;13.07;;
75698;SDS011;64313;51.018;13.742;2024-03-08T01:13:03;23.63;;;12.80;;
75698;SDS011;64313;51.018;13.742;2024-03-08T01:15:28;27.88;;;14.07;;
75698;SDS011;64313;51.018;13.742;2024-03-08T01:17:54;24.85;;;13.15;;
75698;SDS011;64313;51.018;13.742;2024-03-08T01:20:19;24.92;;;13.00;;
75698;SDS011;64313;51.018;13.742;2024-03-08T01:22:46;25.27;;;13.13;;
75698;SDS011;64313;51.018;13.742;2024-03-08T01:25:11;26.23;;;13.82;;
75698;SDS011;64313;51.018;13.742;2024-03-08T01:27:36;28.13;;;13.50;;
75698;SDS011;64313;51.018;13.742;2024-03-08T01:30:02;26.60;;;14.07;;
75698;SDS011;64313;51.018;13.742;2024-03-08T01:32:29;26.38;;;12.77;;
75698;SDS011;64313;51.018;13.742;2024-03-08T01:34:54;29.60;;;13.93;;
75698;SDS011;64313;51.018;13.742;2024-03-08T01:37:19;25.55;;;13.20;;
75698;SDS011;64313;51.018;13.742;2024-03-08T01:39:45;25.85;;;12.80;;
75698;SDS011;64313;51.018;13.742;2024-03-08T01:42:10;23.40;;;12.93;;
75698;SDS011;64313;51.018;13.742;2024-03-08T01:44:37;25.08;;;13.10;;
75698;SDS011;64313;51.018;13.742;2024-03-08T01:47:04;25.27;;;13.20;;
75698;SDS011;64313;51.018;13.742;2024-03-08T01:49:30;28.10;;;13.38;;
75698;SDS011;64313;51.018;13.742;2024-03-08T01:54:21;26.83;;;12.77;;
75698;SDS011;64313;51.018;13.742;2024-03-08T01:56:48;23.98;;;12.18;;
75698;SDS011;64313;51.018;13.742;2024-03-08T01:59:13;24.65;;;12.38;;
75698;SDS011;64313;51.018;13.742;2024-03-08T02:04:05;23.08;;;11.95;;
75698;SDS011;64313;51.018;13.742;2024-03-08T02:06:32;25.90;;;13.40;;
75698;SDS011;64313;51.018;13.742;2024-03-08T02:08:57;24.80;;;12.63;;
75698;SDS011;64313;51.018;13.742;2024-03-08T02:11:23;26.67;;;13.32;;
75698;SDS011;64313;51.018;13.742;2024-03-08T02:13:48;26.20;;;13.20;;
75698;SDS011;64313;51.018;13.742;2024-03-08T02:16:19;24.55;;;12.98;;
75698;SDS011;64313;51.018;13.742;2024-03-08T02:18:45;26.95;;;12.60;;
75698;SDS011;64313;51.018;13.742;2024-03-08T02:21:10;24.80;;;12.90;;
75698;SDS011;64313;51.018;13.742;2024-03-08T02:23:36;26.35;;;13.32;;
75698;SDS011;64313;51.018;13.742;2024-03-08T02:28:29;27.50;;;12.52;;
75698;SDS011;64313;51.018;13.742;2024-03-08T02:30:55;24.73;;;12.68;;
75698;SDS011;64313;51.018;13.742;2024-03-08T02:33:21;22.50;;;13.00;;
75698;SDS011;64313;51.018;13.742;2024-03-08T02:35:48;25.67;;;13.02;;
75698;SDS011;64313;51.018;13.742;2024-03-08T02:40:43;25.20;;;12.57;;
75698;SDS011;64313;51.018;13.742;2024-03-08T02:43:10;25.27;;;12.38;;
75698;SDS011;64313;51.018;13.742;2024-03-08T02:45:36;26.77;;;12.98;;
75698;SDS011;64313;51.018;13.742;2024-03-08T02:48:01;25.67;;;13.18;;
75698;SDS011;64313;51.018;13.742;2024-03-08T02:50:27;24.50;;;12.73;;
75698;SDS011;64313;51.018;13.742;2024-03-08T02:52:53;27.05;;;13.15;;
75698;SDS011;64313;51.018;13.742;2024-03-08T02:55:18;25.77;;;13.27;;
75698;SDS011;64313;51.018;13.742;2024-03-08T02:57:44;24.80;;;13.07;;
75698;SDS011;64313;51.018;13.742;2024-03-08T03:00:12;24.65;;;13.13;;
75698;SDS011;64313;51.018;13.742;2024-03-08T03:05:03;28.37;;;12.53;;
75698;SDS011;64313;51.018;13.742;2024-03-08T03:07:32;28.42;;;13.25;;
75698;SDS011;64313;51.018;13.742;2024-03-08T03:09:58;24.48;;;12.55;;
75698;SDS011;64313;51.018;13.742;2024-03-08T03:12:25;26.92;;;13.88;;
75698;SDS011;64313;51.018;13.742;2024-03-08T03:14:51;25.75;;;12.77;;
75698;SDS011;64313;51.018;13.742;2024-03-08T03:17:17;26.02;;;13.73;;
75698;SDS011;64313;51.018;13.742;2024-03-08T03:19:42;25.20;;;12.38;;
75698;SDS011;64313;51.018;13.742;2024-03-08T03:22:08;26.33;;;13.40;;
75698;SDS011;64313;51.018;13.742;2024-03-08T03:24:34;26.45;;;13.23;;
75698;SDS011;64313;51.018;13.742;2024-03-08T03:27:03;25.45;;;12.82;;
75698;SDS011;64313;51.018;13.742;2024-03-08T03:29:39;25.05;;;13.43;;
75698;SDS011;64313;51.018;13.742;2024-03-08T03:32:05;23.30;;;11.88;;
75698;SDS011;64313;51.018;13.742;2024-03-08T03:34:32;28.75;;;13.32;;
75698;SDS011;64313;51.018;13.742;2024-03-08T03:37:00;22.50;;;12.25;;
75698;SDS011;64313;51.018;13.742;2024-03-08T03:39:27;28.42;;;13.18;;
75698;SDS011;64313;51.018;13.742;2024-03-08T03:41:56;28.00;;;13.57;;
75698;SDS011;64313;51.018;13.742;2024-03-08T03:44:21;25.30;;;13.13;;
75698;SDS011;64313;51.018;13.742;2024-03-08T03:46:48;25.73;;;13.00;;
75698;SDS011;64313;51.018;13.742;2024-03-08T03:49:15;24.17;;;12.73;;
75698;SDS011;64313;51.018;13.742;2024-03-08T03:51:41;28.45;;;12.68;;
75698;SDS011;64313;51.018;13.742;2024-03-08T03:54:06;25.25;;;13.02;;
75698;SDS011;64313;51.018;13.742;2024-03-08T03:56:32;26.48;;;13.65;;
75698;SDS011;64313;51.018;13.742;2024-03-08T03:58:58;27.85;;;12.95;;
75698;SDS011;64313;51.018;13.742;2024-03-08T04:01:23;26.75;;;13.27;;
75698;SDS011;64313;51.018;13.742;2024-03-08T04:03:49;26.88;;;12.57;;
75698;SDS011;64313;51.018;13.742;2024-03-08T04:06:14;27.55;;;12.95;;
75698;SDS011;64313;51.018;13.742;2024-03-08T04:08:39;24.60;;;12.20;;
75698;SDS011;64313;51.018;13.742;2024-03-08T04:11:06;27.92;;;12.85;;
75698;SDS011;64313;51.018;13.742;2024-03-08T04:13:33;26.55;;;13.05;;
75698;SDS011;64313;51.018;13.742;2024-03-08T04:15:58;24.50;;;12.80;;
75698;SDS011;64313;51.018;13.742;2024-03-08T04:18:24;28.00;;;13.20;;
75698;SDS011;64313;51.018;13.742;2024-03-08T04:20:49;24.20;;;13.00;;
75698;SDS011;64313;51.018;13.742;2024-03-08T04:23:15;24.33;;;12.73;;
75698;SDS011;64313;51.018;13.742;2024-03-08T04:25:41;26.73;;;13.48;;
75698;SDS011;64313;51.018;13.742;2024-03-08T04:28:07;25.98;;;13.38;;
75698;SDS011;64313;51.018;13.742;2024-03-08T04:30:33;25.33;;;12.45;;
75698;SDS011;64313;51.018;13.742;2024-03-08T04:32:58;25.98;;;12.85;;
75698;SDS011;64313;51.018;13.742;2024-03-08T04:35:23;25.88;;;12.65;;
75698;SDS011;64313;51.018;13.742;2024-03-08T04:37:49;24.90;;;12.98;;
75698;SDS011;64313;51.018;13.742;2024-03-08T04:40:14;23.88;;;12.77;;
75698;SDS011;64313;51.018;13.742;2024-03-08T04:42:39;24.27;;;12.32;;
75698;SDS011;64313;51.018;13.742;2024-03-08T04:45:09;27.20;;;12.88;;
75698;SDS011;64313;51.018;13.742;2024-03-08T04:47:36;24.65;;;12.10;;
75698;SDS011;64313;51.018;13.742;2024-03-08T04:50:02;24.30;;;12.15;;
75698;SDS011;64313;51.018;13.742;2024-03-08T04:52:27;24.60;;;12.70;;
75698;SDS011;64313;51.018;13.742;2024-03-08T04:54:53;26.90;;;13.25;;
75698;SDS011;64313;51.018;13.742;2024-03-08T04:57:18;27.10;;;12.27;;
75698;SDS011;64313;51.018;13.742;2024-03-08T04:59:44;29.15;;;13.02;;
75698;SDS011;64313;51.018;13.742;2024-03-08T05:02:09;25.27;;;12.82;;
75698;SDS011;64313;51.018;13.742;2024-03-08T05:04:34;25.77;;;12.98;;
75698;SDS011;64313;51.018;13.742;2024-03-08T05:07:00;25.08;;;12.93;;
75698;SDS011;64313;51.018;13.742;2024-03-08T05:09:26;25.63;;;12.75;;
75698;SDS011;64313;51.018;13.742;2024-03-08T05:11:51;27.95;;;12.52;;
75698;SDS011;64313;51.018;13.742;2024-03-08T05:14:16;25.35;;;13.60;;
75698;SDS011;64313;51.018;13.742;2024-03-08T05:16:42;24.45;;;12.45;;
75698;SDS011;64313;51.018;13.742;2024-03-08T05:19:08;31.77;;;14.45;;
75698;SDS011;64313;51.018;13.742;2024-03-08T05:21:33;31.30;;;14.88;;
75698;SDS011;64313;51.018;13.742;2024-03-08T05:23:59;28.55;;;14.05;;
75698;SDS011;64313;51.018;13.742;2024-03-08T05:26:24;26.42;;;13.75;;
75698;SDS011;64313;51.018;13.742;2024-03-08T05:28:49;28.90;;;13.00;;
75698;SDS011;64313;51.018;13.742;2024-03-08T05:31:19;27.08;;;13.73;;
75698;SDS011;64313;51.018;13.742;2024-03-08T05:33:47;30.45;;;14.10;;
75698;SDS011;64313;51.018;13.742;2024-03-08T05:36:12;28.60;;;14.50;;
75698;SDS011;64313;51.018;13.742;2024-03-08T05:38:40;29.55;;;14.18;;
75698;SDS011;64313;51.018;13.742;2024-03-08T05:41:07;28.80;;;13.57;;
75698;SDS011;64313;51.018;13.742;2024-03-08T05:43:33;29.00;;;13.35;;
75698;SDS011;64313;51.018;13.742;2024-03-08T05:45:58;25.40;;;13.73;;
75698;SDS011;64313;51.018;13.742;2024-03-08T05:48:23;27.63;;;13.05;;
75698;SDS011;64313;51.018;13.742;2024-03-08T05:50:50;26.90;;;12.80;;
75698;SDS011;64313;51.018;13.742;2024-03-08T05:53:15;28.73;;;13.65;;
75698;SDS011;64313;51.018;13.742;2024-03-08T05:55:42;29.23;;;13.10;;
75698;SDS011;64313;51.018;13.742;2024-03-08T05:58:08;28.05;;;13.88;;
75698;SDS011;64313;51.018;13.742;2024-03-08T06:00:34;31.00;;;13.95;;
75698;SDS011;64313;51.018;13.742;2024-03-08T06:03:01;29.98;;;13.73;;
75698;SDS011;64313;51.018;13.742;2024-03-08T06:05:26;27.35;;;13.55;;
75698;SDS011;64313;51.018;13.742;2024-03-08T06:07:52;27.42;;;13.82;;
75698;SDS011;64313;51.018;13.742;2024-03-08T06:10:18;25.20;;;12.88;;
75698;SDS011;64313;51.018;13.742;2024-03-08T06:12:44;26.35;;;13.93;;
75698;SDS011;64313;51.018;13.742;2024-03-08T06:15:10;27.23;;;13.43;;
75698;SDS011;64313;51.018;13.742;2024-03-08T06:17:39;26.95;;;13.55;;
75698;SDS011;64313;51.018;13.742;2024-03-08T06:20:08;26.48;;;13.30;;
75698;SDS011;64313;51.018;13.742;2024-03-08T06:22:38;26.50;;;13.45;;
75698;SDS011;64313;51.018;13.742;2024-03-08T06:25:10;25.45;;;13.68;;
75698;SDS011;64313;51.018;13.742;2024-03-08T06:27:40;28.70;;;13.80;;
75698;SDS011;64313;51.018;13.742;2024-03-08T06:30:07;29.75;;;13.18;;
75698;SDS011;64313;51.018;13.742;2024-03-08T06:32:34;25.90;;;13.43;;
75698;SDS011;64313;51.018;13.742;2024-03-08T06:35:01;26.40;;;13.30;;
75698;SDS011;64313;51.018;13.742;2024-03-08T06:37:33;31.15;;;13.50;;
75698;SDS011;64313;51.018;13.742;2024-03-08T06:39:59;24.70;;;13.82;;
75698;SDS011;64313;51.018;13.742;2024-03-08T06:42:25;34.05;;;14.52;;
75698;SDS011;64313;51.018;13.742;2024-03-08T06:44:51;29.42;;;13.80;;
75698;SDS011;64313;51.018;13.742;2024-03-08T06:47:21;27.80;;;13.90;;
75698;SDS011;64313;51.018;13.742;2024-03-08T06:49:50;29.70;;;14.70;;
75698;SDS011;64313;51.018;13.742;2024-03-08T06:52:17;27.75;;;13.60;;
75698;SDS011;64313;51.018;13.742;2024-03-08T06:54:42;32.00;;;14.68;;
75698;SDS011;64313;51.018;13.742;2024-03-08T06:57:07;29.33;;;14.10;;
75698;SDS011;64313;51.018;13.742;2024-03-08T06:59:35;29.25;;;13.57;;
75698;SDS011;64313;51.018;13.742;2024-03-08T07:02:01;31.33;;;14.27;;
75698;SDS011;64313;51.018;13.742;2024-03-08T07:04:26;27.05;;;13.88;;
75698;SDS011;64313;51.018;13.742;2024-03-08T07:06:54;30.35;;;14.32;;
75698;SDS011;64313;51.018;13.742;2024-03-08T07:11:46;37.33;;;14.97;;
75698;SDS011;64313;51.018;13.742;2024-03-08T07:14:11;32.97;;;15.23;;
75698;SDS011;64313;51.018;13.742;2024-03-08T07:16:38;27.95;;;14.10;;
75698;SDS011;64313;51.018;13.742;2024-03-08T07:19:04;30.02;;;15.20;;
75698;SDS011;64313;51.018;13.742;2024-03-08T07:21:30;29.67;;;15.30;;
75698;SDS011;64313;51.018;13.742;2024-03-08T07:23:56;28.00;;;14.00;;
75698;SDS011;64313;51.018;13.742;2024-03-08T07:26:27;30.08;;;14.38;;
75698;SDS011;64313;51.018;13.742;2024-03-08T07:28:52;32.15;;;15.45;;
75698;SDS011;64313;51.018;13.742;2024-03-08T07:31:20;27.55;;;14.52;;
75698;SDS011;64313;51.018;13.742;2024-03-08T07:34:00;28.85;;;13.73;;
75698;SDS011;64313;51.018;13.742;2024-03-08T07:36:25;30.55;;;14.05;;
75698;SDS011;64313;51.018;13.742;2024-03-08T07:38:50;33.85;;;14.90;;
75698;SDS011;64313;51.018;13.742;2024-03-08T07:41:16;32.55;;;15.15;;
75698;SDS011;64313;51.018;13.742;2024-03-08T07:43:41;28.45;;;13.95;;
75698;SDS011;64313;51.018;13.742;2024-03-08T07:46:07;27.13;;;13.48;;
75698;SDS011;64313;51.018;13.742;2024-03-08T07:48:35;29.70;;;14.70;;
75698;SDS011;64313;51.018;13.742;2024-03-08T07:51:01;31.05;;;14.75;;
75698;SDS011;64313;51.018;13.742;2024-03-08T07:53:28;28.17;;;14.20;;
75698;SDS011;64313;51.018;13.742;2024-03-08T07:55:53;31.20;;;14.13;;
75698;SDS011;64313;51.018;13.742;2024-03-08T07:58:21;31.10;;;14.05;;
75698;SDS011;64313;51.018;13.742;2024-03-08T08:00:48;30.58;;;15.27;;
75698;SDS011;64313;51.018;13.742;2024-03-08T08:03:14;29.08;;;13.93;;
75698;SDS011;64313;51.018;13.742;2024-03-08T08:05:39;32.28;;;14.20;;
75698;SDS011;64313;51.018;13.742;2024-03-08T08:08:05;30.67;;;14.65;;
75698;SDS011;64313;51.018;13.742;2024-03-08T08:10:32;26.02;;;13.23;;
75698;SDS011;64313;51.018;13.742;2024-03-08T08:12:58;29.38;;;13.43;;
75698;SDS011;64313;51.018;13.742;2024-03-08T08:15:23;29.10;;;13.88;;
75698;SDS011;64313;51.018;13.742;2024-03-08T08:17:49;27.30;;;13.45;;
75698;SDS011;64313;51.018;13.742;2024-03-08T08:20:14;31.27;;;14.82;;
75698;SDS011;64313;51.018;13.742;2024-03-08T08:22:40;27.60;;;12.82;;
75698;SDS011;64313;51.018;13.742;2024-03-08T08:25:06;26.75;;;13.13;;
75698;SDS011;64313;51.018;13.742;2024-03-08T08:27:32;26.42;;;12.73;;
75698;SDS011;64313;51.018;13.742;2024-03-08T08:29:57;25.77;;;13.60;;
75698;SDS011;64313;51.018;13.742;2024-03-08T08:32:23;30.10;;;13.82;;
75698;SDS011;64313;51.018;13.742;2024-03-08T08:34:49;30.70;;;14.30;;
75698;SDS011;64313;51.018;13.742;2024-03-08T08:37:14;29.42;;;13.48;;
75698;SDS011;64313;51.018;13.742;2024-03-08T08:39:42;26.15;;;13.38;;
75698;SDS011;64313;51.018;13.742;2024-03-08T08:42:07;29.77;;;13.68;;
75698;SDS011;64313;51.018;13.742;2024-03-08T08:44:34;29.48;;;14.45;;
75698;SDS011;64313;51.018;13.742;2024-03-08T08:47:00;31.58;;;13.73;;
75698;SDS011;64313;51.018;13.742;2024-03-08T08:49:25;27.58;;;13.35;;
75698;SDS011;64313;51.018;13.742;2024-03-08T08:51:51;29.52;;;14.10;;
75698;SDS011;64313;51.018;13.742;2024-03-08T08:54:16;27.00;;;12.88;;
75698;SDS011;64313;51.018;13.742;2024-03-08T08:56:42;27.90;;;13.18;;
75698;SDS011;64313;51.018;13.742;2024-03-08T08:59:10;28.77;;;14.40;;
75698;SDS011;64313;51.018;13.742;2024-03-08T09:01:39;28.10;;;13.50;;
75698;SDS011;64313;51.018;13.742;2024-03-08T09:04:05;28.65;;;13.50;;
75698;SDS011;64313;51.018;13.742;2024-03-08T09:06:32;27.15;;;13.65;;
75698;SDS011;64313;51.018;13.742;2024-03-08T09:11:23;26.67;;;13.90;;
75698;SDS011;64313;51.018;13.742;2024-03-08T09:13:50;27.05;;;13.10;;
75698;SDS011;64313;51.018;13.742;2024-03-08T09:16:15;27.73;;;13.68;;
75698;SDS011;64313;51.018;13.742;2024-03-08T09:18:41;28.90;;;13.75;;
75698;SDS011;64313;51.018;13.742;2024-03-08T09:23:34;29.23;;;13.55;;
75698;SDS011;64313;51.018;13.742;2024-03-08T09:28:26;27.98;;;12.88;;
75698;SDS011;64313;51.018;13.742;2024-03-08T09:33:17;25.20;;;12.07;;
75698;SDS011;64313;51.018;13.742;2024-03-08T09:35:47;26.17;;;11.95;;
75698;SDS011;64313;51.018;13.742;2024-03-08T09:38:13;23.58;;;12.05;;
75698;SDS011;64313;51.018;13.742;2024-03-08T09:40:43;28.45;;;12.88;;
75698;SDS011;64313;51.018;13.742;2024-03-08T09:43:11;27.52;;;12.93;;
75698;SDS011;64313;51.018;13.742;2024-03-08T09:45:37;24.27;;;13.10;;
75698;SDS011;64313;51.018;13.742;2024-03-08T09:48:05;25.42;;;12.55;;
75698;SDS011;64313;51.018;13.742;2024-03-08T09:50:37;25.42;;;12.65;;
75698;SDS011;64313;51.018;13.742;2024-03-08T09:55:28;22.67;;;11.07;;
75698;SDS011;64313;51.018;13.742;2024-03-08T09:57:59;24.63;;;11.85;;
75698;SDS011;64313;51.018;13.742;2024-03-08T10:00:46;25.45;;;11.80;;
75698;SDS011;64313;51.018;13.742;2024-03-08T10:05:40;24.75;;;11.70;;
75698;SDS011;64313;51.018;13.742;2024-03-08T10:08:06;22.88;;;11.95;;
75698;SDS011;64313;51.018;13.742;2024-03-08T10:12:58;24.20;;;11.52;;
75698;SDS011;64313;51.018;13.742;2024-03-08T10:15:26;24.95;;;11.52;;
75698;SDS011;64313;51.018;13.742;2024-03-08T10:17:55;23.13;;;12.05;;
75698;SDS011;64313;51.018;13.742;2024-03-08T10:20:21;22.52;;;11.88;;
75698;SDS011;64313;51.018;13.742;2024-03-08T10:25:11;23.17;;;11.43;;
75698;SDS011;64313;51.018;13.742;2024-03-08T10:30:06;22.92;;;10.50;;
75698;SDS011;64313;51.018;13.742;2024-03-08T10:32:35;21.42;;;11.48;;
75698;SDS011;64313;51.018;13.742;2024-03-08T10:37:25;23.30;;;11.50;;
75698;SDS011;64313;51.018;13.742;2024-03-08T10:40:35;22.42;;;11.30;;
75698;SDS011;64313;51.018;13.742;2024-03-08T10:42:49;19.98;;;10.88;;
75698;SDS011;64313;51.018;13.742;2024-03-08T10:45:34;22.90;;;10.70;;
75698;SDS011;64313;51.018;13.742;2024-03-08T10:50:56;25.45;;;12.25;;
75698;SDS011;64313;51.018;13.742;2024-03-08T10:53:22;23.65;;;11.35;;
75698;SDS011;64313;51.018;13.742;2024-03-08T10:55:49;21.33;;;11.23;;
75698;SDS011;64313;51.018;13.742;2024-03-08T10:58:18;24.20;;;12.10;;
75698;SDS011;64313;51.018;13.742;2024-03-08T11:00:46;21.27;;;11.20;;
75698;SDS011;64313;51.018;13.742;2024-03-08T11:06:05;20.83;;;11.15;;
75698;SDS011;64313;51.018;13.742;2024-03-08T11:08:39;22.98;;;11.13;;
75698;SDS011;64313;51.018;13.742;2024-03-08T11:11:04;21.92;;;11.48;;
75698;SDS011;64313;51.018;13.742;2024-03-08T11:15:58;20.67;;;10.68;;
75698;SDS011;64313;51.018;13.742;2024-03-08T11:18:25;20.42;;;10.50;;
75698;SDS011;64313;51.018;13.742;2024-03-08T11:20:53;23.50;;;10.88;;
75698;SDS011;64313;51.018;13.742;2024-03-08T11:23:22;21.73;;;11.05;;
75698;SDS011;64313;51.018;13.742;2024-03-08T11:25:47;20.48;;;10.68;;
75698;SDS011;64313;51.018;13.742;2024-03-08T11:28:21;19.88;;;11.25;;
75698;SDS011;64313;51.018;13.742;2024-03-08T11:33:28;19.48;;;10.80;;
75698;SDS011;64313;51.018;13.742;2024-03-08T11:38:39;21.00;;;10.50;;
75698;SDS011;64313;51.018;13.742;2024-03-08T11:41:05;18.67;;;10.65;;
75698;SDS011;64313;51.018;13.742;2024-03-08T11:43:30;21.98;;;9.68;;
75698;SDS011;64313;51.018;13.742;2024-03-08T11:48:34;19.73;;;10.00;;
75698;SDS011;64313;51.018;13.742;2024-03-08T11:51:01;20.73;;;9.77;;
75698;SDS011;64313;51.018;13.742;2024-03-08T11:53:26;19.08;;;9.88;;
75698;SDS011;64313;51.018;13.742;2024-03-08T11:55:52;16.90;;;9.38;;
75698;SDS011;64313;51.018;13.742;2024-03-08T11:58:17;18.23;;;9.80;;
75698;SDS011;64313;51.018;13.742;2024-03-08T12:00:43;19.35;;;10.27;;
75698;SDS011;64313;51.018;13.742;2024-03-08T12:03:11;18.38;;;9.93;;
75698;SDS011;64313;51.018;13.742;2024-03-08T12:05:37;19.15;;;9.70;;
75698;SDS011;64313;51.018;13.742;2024-03-08T12:08:03;20.50;;;9.68;;
75698;SDS011;64313;51.018;13.742;2024-03-08T12:10:31;20.13;;;10.23;;
75698;SDS011;64313;51.018;13.742;2024-03-08T12:12:57;17.40;;;8.70;;
75698;SDS011;64313;51.018;13.742;2024-03-08T12:15:28;16.15;;;8.50;;
75698;SDS011;64313;51.018;13.742;2024-03-08T12:17:54;15.45;;;9.00;;
75698;SDS011;64313;51.018;13.742;2024-03-08T12:20:21;15.35;;;8.02;;
75698;SDS011;64313;51.018;13.742;2024-03-08T12:22:52;17.42;;;9.38;;
75698;SDS011;64313;51.018;13.742;2024-03-08T12:25:19;16.42;;;8.85;;
75698;SDS011;64313;51.018;13.742;2024-03-08T12:27:45;17.13;;;8.98;;
75698;SDS011;64313;51.018;13.742;2024-03-08T12:30:21;16.42;;;8.48;;
75698;SDS011;64313;51.018;13.742;2024-03-08T12:32:54;15.23;;;8.15;;
75698;SDS011;64313;51.018;13.742;2024-03-08T12:35:22;15.95;;;8.18;;
75698;SDS011;64313;51.018;13.742;2024-03-08T12:37:59;16.42;;;8.35;;
75698;SDS011;64313;51.018;13.742;2024-03-08T12:40:28;17.45;;;9.18;;
75698;SDS011;64313;51.018;13.742;2024-03-08T12:45:22;15.23;;;7.95;;
75698;SDS011;64313;51.018;13.742;2024-03-08T12:47:49;14.63;;;8.43;;
75698;SDS011;64313;51.018;13.742;2024-03-08T12:50:16;16.75;;;8.25;;
75698;SDS011;64313;51.018;13.742;2024-03-08T12:52:41;15.98;;;8.38;;
75698;SDS011;64313;51.018;13.742;2024-03-08T12:55:07;15.15;;;7.93;;
75698;SDS011;64313;51.018;13.742;2024-03-08T12:57:33;15.85;;;7.88;;
75698;SDS011;64313;51.018;13.742;2024-03-08T13:00:00;14.90;;;8.40;;
75698;SDS011;64313;51.018;13.742;2024-03-08T13:02:27;14.48;;;7.95;;
75698;SDS011;64313;51.018;13.742;2024-03-08T13:04:53;15.77;;;8.18;;
75698;SDS011;64313;51.018;13.742;2024-03-08T13:07:22;15.70;;;7.90;;
75698;SDS011;64313;51.018;13.742;2024-03-08T13:09:50;15.48;;;8.30;;
75698;SDS011;64313;51.018;13.742;2024-03-08T13:12:17;16.55;;;8.40;;
75698;SDS011;64313;51.018;13.742;2024-03-08T13:14:43;14.57;;;8.68;;
75698;SDS011;64313;51.018;13.742;2024-03-08T13:17:08;16.38;;;9.15;;
75698;SDS011;64313;51.018;13.742;2024-03-08T13:19:37;14.73;;;7.90;;
75698;SDS011;64313;51.018;13.742;2024-03-08T13:22:03;15.00;;;7.95;;
75698;SDS011;64313;51.018;13.742;2024-03-08T13:24:32;13.32;;;7.05;;
75698;SDS011;64313;51.018;13.742;2024-03-08T13:26:58;12.50;;;6.85;;
75698;SDS011;64313;51.018;13.742;2024-03-08T13:29:24;14.32;;;7.10;;
75698;SDS011;64313;51.018;13.742;2024-03-08T13:31:50;13.15;;;6.65;;
75698;SDS011;64313;51.018;13.742;2024-03-08T13:34:17;13.65;;;6.78;;
75698;SDS011;64313;51.018;13.742;2024-03-08T13:36:43;14.55;;;7.38;;
75698;SDS011;64313;51.018;13.742;2024-03-08T13:39:09;13.23;;;7.10;;
75698;SDS011;64313;51.018;13.742;2024-03-08T13:41:40;14.05;;;7.78;;
75698;SDS011;64313;51.018;13.742;2024-03-08T13:44:06;15.50;;;7.82;;
75698;SDS011;64313;51.018;13.742;2024-03-08T13:46:32;13.82;;;7.88;;
75698;SDS011;64313;51.018;13.742;2024-03-08T13:49:03;13.68;;;7.20;;
75698;SDS011;64313;51.018;13.742;2024-03-08T13:51:34;13.55;;;6.95;;
75698;SDS011;64313;51.018;13.742;2024-03-08T13:54:00;13.07;;;7.30;;
75698;SDS011;64313;51.018;13.742;2024-03-08T13:56:26;14.02;;;7.22;;
75698;SDS011;64313;51.018;13.742;2024-03-08T13:58:51;11.13;;;6.40;;
75698;SDS011;64313;51.018;13.742;2024-03-08T14:01:17;12.40;;;6.28;;
75698;SDS011;64313;51.018;13.742;2024-03-08T14:03:42;12.85;;;6.70;;
75698;SDS011;64313;51.018;13.742;2024-03-08T14:06:08;11.90;;;5.93;;
75698;SDS011;64313;51.018;13.742;2024-03-08T14:08:34;13.93;;;6.03;;
75698;SDS011;64313;51.018;13.742;2024-03-08T14:11:02;13.32;;;5.90;;
75698;SDS011;64313;51.018;13.742;2024-03-08T14:13:36;9.55;;;4.70;;
75698;SDS011;64313;51.018;13.742;2024-03-08T14:16:05;9.63;;;5.03;;
75698;SDS011;64313;51.018;13.742;2024-03-08T14:18:30;10.35;;;4.95;;
75698;SDS011;64313;51.018;13.742;2024-03-08T14:20:56;9.93;;;5.38;;
75698;SDS011;64313;51.018;13.742;2024-03-08T14:23:21;10.18;;;5.35;;
75698;SDS011;64313;51.018;13.742;2024-03-08T14:25:48;12.38;;;5.60;;
75698;SDS011;64313;51.018;13.742;2024-03-08T14:28:17;12.43;;;6.20;;
75698;SDS011;64313;51.018;13.742;2024-03-08T14:30:44;10.30;;;4.63;;
75698;SDS011;64313;51.018;13.742;2024-03-08T14:33:09;10.68;;;5.55;;
75698;SDS011;64313;51.018;13.742;2024-03-08T14:35:35;11.38;;;5.40;;
75698;SDS011;64313;51.018;13.742;2024-03-08T14:38:01;10.82;;;5.40;;
75698;SDS011;64313;51.018;13.742;2024-03-08T14:40:27;10.55;;;4.75;;
75698;SDS011;64313;51.018;13.742;2024-03-08T14:42:52;10.00;;;5.10;;
75698;SDS011;64313;51.018;13.742;2024-03-08T14:45:18;9.30;;;4.85;;
75698;SDS011;64313;51.018;13.742;2024-03-08T14:47:47;9.18;;;4.82;;
75698;SDS011;64313;51.018;13.742;2024-03-08T14:50:16;8.40;;;4.68;;
75698;SDS011;64313;51.018;13.742;2024-03-08T14:52:43;8.55;;;4.20;;
75698;SDS011;64313;51.018;13.742;2024-03-08T14:55:09;9.88;;;4.80;;
75698;SDS011;64313;51.018;13.742;2024-03-08T14:57:39;9.88;;;4.72;;
75698;SDS011;64313;51.018;13.742;2024-03-08T15:00:05;11.05;;;5.10;;
75698;SDS011;64313;51.018;13.742;2024-03-08T15:02:32;8.95;;;4.30;;
75698;SDS011;64313;51.018;13.742;2024-03-08T15:05:02;11.80;;;4.80;;
75698;SDS011;64313;51.018;13.742;2024-03-08T15:07:34;9.05;;;4.55;;
75698;SDS011;64313;51.018;13.742;2024-03-08T15:10:00;9.25;;;4.55;;